createdAt,value
2018-02-11T00:00:05.229Z,0.6
2018-02-11T00:05:02.742Z,0.6
2018-02-11T00:10:03.296Z,0.4
2018-02-11T00:15:02.782Z,0.4
2018-02-11T00:20:03.253Z,0.4
2018-02-11T00:25:02.766Z,0.3
2018-02-11T00:30:03.256Z,0.4
2018-02-11T00:35:02.697Z,0.4
2018-02-11T00:40:03.193Z,0.3
2018-02-11T00:45:02.645Z,0.3
2018-02-11T00:50:03.111Z,0.3
2018-02-11T00:55:03.202Z,0.4
2018-02-11T01:00:02.692Z,0.4
2018-02-11T01:05:02.716Z,0.4
2018-02-11T01:10:03.282Z,0.4
2018-02-11T01:15:02.728Z,0.4
2018-02-11T01:20:03.250Z,0.4
2018-02-11T01:25:02.696Z,0.4
2018-02-11T01:30:03.181Z,0.4
2018-02-11T01:35:02.700Z,0.4
2018-02-11T01:40:03.243Z,0.4
2018-02-11T01:45:02.582Z,0.4
2018-02-11T01:50:03.009Z,0.6
2018-02-11T01:55:02.573Z,0.4
2018-02-11T02:00:03.025Z,0.4
2018-02-11T02:05:02.483Z,0.4
2018-02-11T02:10:02.996Z,0.6
2018-02-11T02:15:02.434Z,0.6
2018-02-11T02:20:03.028Z,0.6
2018-02-11T02:25:02.495Z,0.7
2018-02-11T02:30:02.974Z,0.7
2018-02-11T02:35:02.543Z,0.7
2018-02-11T02:40:03.035Z,0.7
2018-02-11T02:45:02.538Z,0.7
2018-02-11T02:50:02.975Z,0.7
2018-02-11T02:55:02.463Z,0.8
2018-02-11T03:00:02.935Z,0.7
2018-02-11T03:05:02.438Z,0.7
2018-02-11T03:10:02.883Z,0.7
2018-02-11T03:15:03.544Z,0.7
2018-02-11T03:20:03.003Z,0.7
2018-02-11T03:25:02.437Z,0.7
2018-02-11T03:30:02.963Z,0.7
2018-02-11T03:35:02.467Z,0.7
2018-02-11T03:40:03.001Z,0.7
2018-02-11T03:45:02.390Z,0.7
2018-02-11T03:50:02.793Z,0.7
2018-02-11T03:55:03.312Z,0.7
2018-02-11T04:00:03.144Z,0.8
2018-02-11T04:05:02.639Z,0.8
2018-02-11T04:10:03.239Z,0.8
2018-02-11T04:15:02.702Z,0.8
2018-02-11T04:20:03.090Z,0.8
2018-02-11T04:25:02.599Z,1.1
2018-02-11T04:30:03.110Z,1.1
2018-02-11T04:35:02.588Z,0.8
2018-02-11T04:40:03.126Z,1.1
2018-02-11T04:45:02.551Z,1.1
2018-02-11T04:50:03.033Z,1.1
2018-02-11T04:55:02.791Z,1.1
2018-02-11T05:00:03.279Z,1.1
2018-02-11T05:05:02.690Z,1.1
2018-02-11T05:10:03.213Z,1.2
2018-02-11T05:15:02.652Z,1.2
2018-02-11T05:20:03.372Z,1.3
2018-02-11T05:25:02.920Z,1.3
2018-02-11T05:30:03.216Z,1.6
2018-02-11T05:35:02.671Z,1.6
2018-02-11T05:40:03.180Z,1.6
2018-02-11T05:45:02.639Z,1.6
2018-02-11T05:50:02.422Z,1.7
2018-02-11T05:55:02.851Z,1.8
2018-02-11T06:00:03.334Z,2.0
2018-02-11T06:05:02.831Z,2.2
2018-02-11T06:10:03.287Z,2.4
2018-02-11T06:15:02.751Z,2.5
2018-02-11T06:20:03.245Z,2.5
2018-02-11T06:25:02.774Z,2.5
2018-02-11T06:30:03.189Z,2.5
2018-02-11T06:35:02.692Z,2.7
2018-02-11T06:40:03.167Z,2.7
2018-02-11T06:45:02.629Z,2.7
2018-02-11T06:50:03.094Z,2.7
2018-02-11T06:55:02.491Z,2.7
2018-02-11T07:00:02.920Z,2.7
2018-02-11T07:05:02.505Z,2.9
2018-02-11T07:10:03.075Z,2.9
2018-02-11T07:15:02.440Z,3.0
2018-02-11T07:20:03.084Z,3.0
2018-02-11T07:25:02.850Z,3.0
2018-02-11T07:30:03.292Z,3.0
2018-02-11T07:35:02.854Z,3.2
2018-02-11T07:40:02.451Z,3.2
2018-02-11T07:45:02.951Z,3.2
2018-02-11T07:50:02.410Z,3.2
2018-02-11T07:55:02.864Z,3.2
2018-02-11T08:00:03.395Z,3.2
2018-02-11T08:05:02.798Z,3.5
2018-02-11T08:10:03.333Z,3.5
2018-02-11T08:15:02.790Z,3.7
2018-02-11T08:20:03.288Z,3.7
2018-02-11T08:25:02.780Z,3.7
2018-02-11T08:30:03.265Z,3.7
2018-02-11T08:35:02.684Z,3.7
2018-02-11T08:40:03.278Z,3.7
2018-02-11T08:45:02.829Z,4.0
2018-02-11T08:50:02.439Z,4.0
2018-02-11T08:55:02.888Z,4.0
2018-02-11T09:00:02.443Z,4.3
2018-02-11T09:05:03.011Z,4.3
2018-02-11T09:10:02.566Z,4.5
2018-02-11T09:15:03.032Z,4.5
2018-02-11T09:20:02.545Z,4.5
2018-02-11T09:25:03.044Z,4.5
2018-02-11T09:30:02.435Z,4.5
2018-02-11T09:35:02.928Z,4.8
2018-02-11T09:40:02.405Z,5.0
2018-02-11T09:45:02.901Z,5.4
2018-02-11T09:50:02.637Z,5.9
2018-02-11T09:55:03.088Z,6.1
2018-02-11T10:00:02.452Z,6.1
2018-02-11T10:05:02.989Z,6.1
2018-02-11T10:10:02.602Z,6.4
2018-02-11T10:15:03.085Z,6.5
2018-02-11T10:20:02.607Z,6.6
2018-02-11T10:25:03.095Z,7.1
2018-02-11T10:30:02.475Z,6.9
2018-02-11T10:35:02.968Z,7.0
2018-02-11T10:40:02.384Z,6.6
2018-02-11T10:45:02.845Z,6.5
2018-02-11T10:50:03.310Z,6.5
2018-02-11T10:55:02.750Z,6.5
2018-02-11T11:00:03.242Z,6.5
2018-02-11T11:05:02.766Z,6.5
2018-02-11T11:10:03.378Z,6.5
2018-02-11T11:15:02.856Z,6.6
2018-02-11T11:20:02.412Z,6.9
2018-02-11T11:25:02.806Z,7.1
2018-02-11T11:30:03.338Z,6.9
2018-02-11T11:35:03.228Z,7.4
2018-02-11T11:40:02.768Z,8.5
2018-02-11T11:45:03.356Z,7.9
2018-02-11T11:50:02.828Z,7.4
2018-02-11T11:55:03.304Z,7.1
2018-02-11T12:00:02.874Z,7.0
2018-02-11T12:05:02.400Z,6.6
2018-02-11T12:10:03.080Z,6.6
2018-02-11T12:15:02.505Z,7.1
2018-02-11T12:20:02.992Z,7.4
2018-02-11T12:25:02.543Z,7.0
2018-02-11T12:30:03.262Z,7.4
2018-02-11T12:35:02.822Z,8.6
2018-02-11T12:40:02.388Z,8.1
2018-02-11T12:45:02.868Z,7.5
2018-02-11T12:50:02.454Z,6.6
2018-02-11T12:55:02.955Z,6.1
2018-02-11T13:00:02.419Z,6.0
2018-02-11T13:05:02.975Z,6.0
2018-02-11T13:10:02.465Z,7.0
2018-02-11T13:15:02.952Z,7.4
2018-02-11T13:20:02.521Z,6.6
2018-02-11T13:25:02.902Z,7.0
2018-02-11T13:30:03.346Z,7.4
2018-02-11T13:35:02.828Z,7.5
2018-02-11T13:40:03.346Z,7.9
2018-02-11T13:45:02.874Z,7.5
2018-02-11T13:50:03.274Z,6.1
2018-02-11T13:55:02.702Z,6.0
2018-02-11T14:00:03.264Z,6.5
2018-02-11T14:05:02.881Z,7.0
2018-02-11T14:10:02.561Z,6.6
2018-02-11T14:15:02.999Z,6.0
2018-02-11T14:20:02.569Z,5.8
2018-02-11T14:25:03.049Z,5.8
2018-02-11T14:30:02.489Z,5.9
2018-02-11T14:35:02.968Z,6.1
2018-02-11T14:40:02.527Z,6.6
2018-02-11T14:45:02.975Z,6.6
2018-02-11T14:50:02.406Z,7.1
2018-02-11T14:55:02.903Z,7.5
2018-02-11T15:00:03.362Z,7.6
2018-02-11T15:05:02.797Z,6.9
2018-02-11T15:10:03.392Z,6.5
2018-02-11T15:15:02.837Z,6.1
2018-02-11T15:20:03.326Z,6.5
2018-02-11T15:25:02.835Z,6.5
2018-02-11T15:30:03.301Z,6.6
2018-02-11T15:35:02.798Z,6.1
2018-02-11T15:40:03.330Z,6.0
2018-02-11T15:45:02.842Z,6.4
2018-02-11T15:50:03.384Z,5.8
2018-02-11T15:55:02.851Z,5.5
2018-02-11T16:00:03.343Z,5.3
2018-02-11T16:05:02.808Z,5.0
2018-02-11T16:10:03.304Z,5.0
2018-02-11T16:15:02.767Z,4.8
2018-02-11T16:20:03.253Z,4.5
2018-02-11T16:25:02.737Z,4.5
2018-02-11T16:30:03.144Z,4.3
2018-02-11T16:35:02.739Z,4.3
2018-02-11T16:40:03.358Z,4.3
2018-02-11T16:45:02.946Z,4.3
2018-02-11T16:50:02.488Z,4.0
2018-02-11T16:55:02.972Z,3.7
2018-02-11T17:00:02.597Z,3.2
2018-02-11T17:05:03.357Z,3.0
2018-02-11T17:10:02.896Z,2.7
2018-02-11T17:15:03.370Z,2.9
2018-02-11T17:20:02.882Z,2.7
2018-02-11T17:25:02.550Z,2.7
2018-02-11T17:30:03.066Z,2.7
2018-02-11T17:35:02.634Z,2.5
2018-02-11T17:40:03.191Z,2.5
2018-02-11T17:45:02.680Z,2.5
2018-02-11T17:50:03.155Z,2.7
2018-02-11T17:55:02.520Z,2.9
2018-02-11T18:00:02.979Z,2.9
2018-02-11T18:05:03.380Z,3.0
2018-02-11T18:10:02.882Z,2.9
2018-02-11T18:15:03.314Z,2.9
2018-02-11T18:20:02.809Z,2.7
2018-02-11T18:25:03.319Z,2.5
2018-02-11T18:30:02.817Z,2.7
2018-02-11T18:35:03.239Z,2.5
2018-02-11T18:40:02.740Z,2.5
2018-02-11T18:45:03.185Z,2.5
2018-02-11T18:50:02.569Z,2.4
2018-02-11T18:55:02.982Z,2.4
2018-02-11T19:00:02.426Z,2.4
2018-02-11T19:05:02.852Z,1.8
2018-02-11T19:10:03.355Z,1.3
2018-02-11T19:15:02.751Z,1.2
2018-02-11T19:20:03.295Z,1.1
2018-02-11T19:25:02.712Z,1.2
2018-02-11T19:30:03.217Z,1.2
2018-02-11T19:35:02.699Z,1.1
2018-02-11T19:40:03.170Z,1.1
2018-02-11T19:45:02.591Z,0.8
2018-02-11T19:50:03.060Z,0.8
2018-02-11T19:55:02.544Z,0.7
2018-02-11T20:00:03.072Z,0.7
2018-02-11T20:05:02.556Z,0.6
2018-02-11T20:10:03.094Z,0.7
2018-02-11T20:15:02.739Z,0.6
2018-02-11T20:20:03.242Z,0.7
2018-02-11T20:25:02.696Z,0.7
2018-02-11T20:30:03.218Z,0.7
2018-02-11T20:35:02.772Z,0.7
2018-02-11T20:40:03.282Z,0.7
2018-02-11T20:45:02.766Z,0.7
2018-02-11T20:50:03.272Z,0.8
2018-02-11T20:55:02.722Z,0.8
2018-02-11T21:00:03.230Z,0.8
2018-02-11T21:05:02.709Z,0.8
2018-02-11T21:10:03.349Z,1.1
2018-02-11T21:15:02.793Z,1.1
2018-02-11T21:20:03.375Z,1.1
2018-02-11T21:25:02.834Z,1.2
2018-02-11T21:30:03.345Z,1.1
2018-02-11T21:35:02.768Z,1.1
2018-02-11T21:40:03.370Z,1.1
2018-02-11T21:45:02.955Z,0.8
2018-02-11T21:50:02.498Z,0.7
2018-02-11T21:55:02.934Z,0.8
2018-02-11T22:00:02.587Z,0.8
2018-02-11T22:05:03.083Z,0.8
2018-02-11T22:10:02.564Z,0.8
2018-02-11T22:15:03.058Z,0.7
2018-02-11T22:20:02.529Z,0.8
2018-02-11T22:25:02.975Z,0.8
2018-02-11T22:30:02.403Z,0.8
2018-02-11T22:35:02.879Z,0.8
2018-02-11T22:40:02.399Z,0.8
2018-02-11T22:45:02.817Z,0.7
2018-02-11T22:50:03.215Z,0.8
2018-02-11T22:55:02.715Z,0.7
2018-02-11T23:00:03.222Z,0.8
2018-02-11T23:05:02.669Z,0.8
2018-02-11T23:10:03.177Z,0.7
2018-02-11T23:15:02.554Z,0.8
2018-02-11T23:20:03.203Z,0.8
2018-02-11T23:25:02.677Z,0.8
2018-02-11T23:30:03.084Z,0.8
2018-02-11T23:35:02.524Z,0.8
2018-02-11T23:40:02.943Z,1.1
2018-02-11T23:45:02.531Z,1.1
2018-02-11T23:50:02.924Z,0.8
2018-02-11T23:55:03.367Z,0.8
